sensor_id;sensor_type;location;lat;lon;timestamp;P1;durP1;ratioP1;P2;durP2;ratioP2
4409;SDS011;2218;51.408;7.208;2023-08-12T00:00:11;2.10;;;2.00;;
4409;SDS011;2218;51.408;7.208;2023-08-12T00:02:43;3.10;;;2.27;;
4409;SDS011;2218;51.408;7.208;2023-08-12T00:05:11;2.13;;;2.03;;
4409;SDS011;2218;51.408;7.208;2023-08-12T00:07:39;2.07;;;1.97;;
4409;SDS011;2218;51.408;7.208;2023-08-12T00:10:07;1.83;;;1.73;;
4409;SDS011;2218;51.408;7.208;2023-08-12T00:12:35;2.10;;;2.00;;
4409;SDS011;2218;51.408;7.208;2023-08-12T00:15:04;2.10;;;1.77;;
4409;SDS011;2218;51.408;7.208;2023-08-12T00:17:34;2.17;;;1.90;;
4409;SDS011;2218;51.408;7.208;2023-08-12T00:20:02;2.90;;;1.80;;
4409;SDS011;2218;51.408;7.208;2023-08-12T00:22:32;3.43;;;2.70;;
4409;SDS011;2218;51.408;7.208;2023-08-12T00:24:59;2.00;;;1.90;;
4409;SDS011;2218;51.408;7.208;2023-08-12T00:27:26;1.93;;;1.80;;
4409;SDS011;2218;51.408;7.208;2023-08-12T00:29:53;1.90;;;1.60;;
4409;SDS011;2218;51.408;7.208;2023-08-12T00:32:21;1.77;;;1.67;;
4409;SDS011;2218;51.408;7.208;2023-08-12T00:34:48;2.07;;;1.97;;
4409;SDS011;2218;51.408;7.208;2023-08-12T00:37:15;2.23;;;2.07;;
4409;SDS011;2218;51.408;7.208;2023-08-12T00:39:42;1.63;;;1.53;;
4409;SDS011;2218;51.408;7.208;2023-08-12T00:42:09;1.80;;;1.70;;
4409;SDS011;2218;51.408;7.208;2023-08-12T00:44:36;1.70;;;1.60;;
4409;SDS011;2218;51.408;7.208;2023-08-12T00:47:03;1.97;;;1.87;;
4409;SDS011;2218;51.408;7.208;2023-08-12T00:49:32;2.17;;;2.00;;
4409;SDS011;2218;51.408;7.208;2023-08-12T00:51:59;2.03;;;1.93;;
4409;SDS011;2218;51.408;7.208;2023-08-12T00:54:27;1.97;;;1.87;;
4409;SDS011;2218;51.408;7.208;2023-08-12T00:56:55;2.10;;;2.00;;
4409;SDS011;2218;51.408;7.208;2023-08-12T00:59:22;1.80;;;1.70;;
4409;SDS011;2218;51.408;7.208;2023-08-12T01:01:50;2.83;;;1.93;;
4409;SDS011;2218;51.408;7.208;2023-08-12T01:04:17;2.43;;;2.23;;
4409;SDS011;2218;51.408;7.208;2023-08-12T01:06:45;1.90;;;1.80;;
4409;SDS011;2218;51.408;7.208;2023-08-12T01:09:12;2.20;;;2.00;;
4409;SDS011;2218;51.408;7.208;2023-08-12T01:11:41;1.60;;;1.50;;
4409;SDS011;2218;51.408;7.208;2023-08-12T01:14:17;2.20;;;2.00;;
4409;SDS011;2218;51.408;7.208;2023-08-12T01:16:52;2.20;;;2.10;;
4409;SDS011;2218;51.408;7.208;2023-08-12T01:19:29;2.23;;;2.03;;
4409;SDS011;2218;51.408;7.208;2023-08-12T01:22:06;2.07;;;1.97;;
4409;SDS011;2218;51.408;7.208;2023-08-12T01:24:38;2.00;;;1.90;;
4409;SDS011;2218;51.408;7.208;2023-08-12T01:27:08;2.10;;;2.00;;
4409;SDS011;2218;51.408;7.208;2023-08-12T01:29:38;2.07;;;1.90;;
4409;SDS011;2218;51.408;7.208;2023-08-12T01:32:11;2.30;;;2.20;;
4409;SDS011;2218;51.408;7.208;2023-08-12T01:34:53;1.93;;;1.83;;
4409;SDS011;2218;51.408;7.208;2023-08-12T01:37:31;2.17;;;1.97;;
4409;SDS011;2218;51.408;7.208;2023-08-12T01:40:04;2.10;;;2.00;;
4409;SDS011;2218;51.408;7.208;2023-08-12T01:42:35;2.03;;;1.80;;
4409;SDS011;2218;51.408;7.208;2023-08-12T01:45:05;2.13;;;2.03;;
4409;SDS011;2218;51.408;7.208;2023-08-12T01:47:33;1.80;;;1.70;;
4409;SDS011;2218;51.408;7.208;2023-08-12T01:50:00;2.03;;;1.93;;
4409;SDS011;2218;51.408;7.208;2023-08-12T01:52:27;2.03;;;1.93;;
4409;SDS011;2218;51.408;7.208;2023-08-12T01:54:54;1.87;;;1.77;;
4409;SDS011;2218;51.408;7.208;2023-08-12T01:57:23;2.00;;;1.90;;
4409;SDS011;2218;51.408;7.208;2023-08-12T01:59:51;2.30;;;2.10;;
4409;SDS011;2218;51.408;7.208;2023-08-12T02:02:18;2.10;;;1.90;;
4409;SDS011;2218;51.408;7.208;2023-08-12T02:04:45;2.10;;;2.00;;
4409;SDS011;2218;51.408;7.208;2023-08-12T02:07:12;1.90;;;1.80;;
4409;SDS011;2218;51.408;7.208;2023-08-12T02:09:39;2.10;;;2.00;;
4409;SDS011;2218;51.408;7.208;2023-08-12T02:12:06;2.40;;;2.07;;
4409;SDS011;2218;51.408;7.208;2023-08-12T02:14:34;2.03;;;1.93;;
4409;SDS011;2218;51.408;7.208;2023-08-12T02:17:02;2.20;;;2.10;;
4409;SDS011;2218;51.408;7.208;2023-08-12T02:19:30;2.03;;;1.93;;
4409;SDS011;2218;51.408;7.208;2023-08-12T02:21:58;2.23;;;2.03;;
4409;SDS011;2218;51.408;7.208;2023-08-12T02:24:25;2.43;;;2.27;;
4409;SDS011;2218;51.408;7.208;2023-08-12T02:26:52;2.00;;;1.90;;
4409;SDS011;2218;51.408;7.208;2023-08-12T02:29:19;2.00;;;1.90;;
4409;SDS011;2218;51.408;7.208;2023-08-12T02:31:47;2.10;;;2.00;;
4409;SDS011;2218;51.408;7.208;2023-08-12T02:34:14;1.87;;;1.77;;
4409;SDS011;2218;51.408;7.208;2023-08-12T02:36:41;1.90;;;1.80;;
4409;SDS011;2218;51.408;7.208;2023-08-12T02:39:09;2.23;;;2.07;;
4409;SDS011;2218;51.408;7.208;2023-08-12T02:41:36;2.40;;;2.20;;
4409;SDS011;2218;51.408;7.208;2023-08-12T02:44:03;2.10;;;2.00;;
4409;SDS011;2218;51.408;7.208;2023-08-12T02:46:30;1.90;;;1.80;;
4409;SDS011;2218;51.408;7.208;2023-08-12T02:48:58;2.00;;;1.90;;
4409;SDS011;2218;51.408;7.208;2023-08-12T02:51:25;2.00;;;1.90;;
4409;SDS011;2218;51.408;7.208;2023-08-12T02:53:52;1.83;;;1.73;;
4409;SDS011;2218;51.408;7.208;2023-08-12T02:56:19;2.83;;;2.00;;
4409;SDS011;2218;51.408;7.208;2023-08-12T02:58:46;2.20;;;1.90;;
4409;SDS011;2218;51.408;7.208;2023-08-12T03:01:13;2.40;;;2.20;;
4409;SDS011;2218;51.408;7.208;2023-08-12T03:03:41;2.00;;;1.90;;
4409;SDS011;2218;51.408;7.208;2023-08-12T03:06:09;2.00;;;1.90;;
4409;SDS011;2218;51.408;7.208;2023-08-12T03:08:36;2.10;;;2.00;;
4409;SDS011;2218;51.408;7.208;2023-08-12T03:11:04;2.50;;;2.10;;
4409;SDS011;2218;51.408;7.208;2023-08-12T03:13:31;2.07;;;1.97;;
4409;SDS011;2218;51.408;7.208;2023-08-12T03:15:58;2.30;;;2.20;;
4409;SDS011;2218;51.408;7.208;2023-08-12T03:18:25;2.10;;;2.00;;
4409;SDS011;2218;51.408;7.208;2023-08-12T03:20:52;2.10;;;2.00;;
4409;SDS011;2218;51.408;7.208;2023-08-12T03:23:23;2.00;;;1.90;;
4409;SDS011;2218;51.408;7.208;2023-08-12T03:25:50;2.60;;;2.40;;
4409;SDS011;2218;51.408;7.208;2023-08-12T03:28:18;2.23;;;2.13;;
4409;SDS011;2218;51.408;7.208;2023-08-12T03:30:49;1.77;;;1.67;;
4409;SDS011;2218;51.408;7.208;2023-08-12T03:33:19;2.37;;;2.27;;
4409;SDS011;2218;51.408;7.208;2023-08-12T03:35:46;2.13;;;2.03;;
4409;SDS011;2218;51.408;7.208;2023-08-12T03:38:15;2.20;;;1.97;;
4409;SDS011;2218;51.408;7.208;2023-08-12T03:40:44;2.20;;;2.00;;
4409;SDS011;2218;51.408;7.208;2023-08-12T03:43:13;2.33;;;2.20;;
4409;SDS011;2218;51.408;7.208;2023-08-12T03:45:43;2.37;;;2.20;;
4409;SDS011;2218;51.408;7.208;2023-08-12T03:48:12;2.00;;;1.90;;
4409;SDS011;2218;51.408;7.208;2023-08-12T03:50:40;2.10;;;2.00;;
4409;SDS011;2218;51.408;7.208;2023-08-12T03:53:08;2.30;;;2.20;;
4409;SDS011;2218;51.408;7.208;2023-08-12T03:55:36;2.50;;;2.33;;
4409;SDS011;2218;51.408;7.208;2023-08-12T03:58:04;2.00;;;1.90;;
4409;SDS011;2218;51.408;7.208;2023-08-12T04:00:31;2.43;;;2.23;;
4409;SDS011;2218;51.408;7.208;2023-08-12T04:03:00;2.00;;;1.90;;
4409;SDS011;2218;51.408;7.208;2023-08-12T04:05:27;2.60;;;2.37;;
4409;SDS011;2218;51.408;7.208;2023-08-12T04:07:54;2.50;;;2.20;;
4409;SDS011;2218;51.408;7.208;2023-08-12T04:10:21;2.17;;;2.07;;
4409;SDS011;2218;51.408;7.208;2023-08-12T04:12:48;2.20;;;2.07;;
4409;SDS011;2218;51.408;7.208;2023-08-12T04:15:18;2.30;;;2.20;;
4409;SDS011;2218;51.408;7.208;2023-08-12T04:17:46;2.40;;;2.20;;
4409;SDS011;2218;51.408;7.208;2023-08-12T04:20:13;2.57;;;2.37;;
4409;SDS011;2218;51.408;7.208;2023-08-12T04:22:39;2.00;;;1.90;;
4409;SDS011;2218;51.408;7.208;2023-08-12T04:25:07;2.33;;;2.23;;
4409;SDS011;2218;51.408;7.208;2023-08-12T04:27:34;2.20;;;2.10;;
4409;SDS011;2218;51.408;7.208;2023-08-12T04:30:02;2.27;;;2.07;;
4409;SDS011;2218;51.408;7.208;2023-08-12T04:32:31;2.10;;;2.00;;
4409;SDS011;2218;51.408;7.208;2023-08-12T04:34:58;2.20;;;2.10;;
4409;SDS011;2218;51.408;7.208;2023-08-12T04:37:25;2.20;;;2.10;;
4409;SDS011;2218;51.408;7.208;2023-08-12T04:39:54;2.37;;;2.27;;
4409;SDS011;2218;51.408;7.208;2023-08-12T04:42:21;1.90;;;1.80;;
4409;SDS011;2218;51.408;7.208;2023-08-12T04:44:49;2.33;;;2.17;;
4409;SDS011;2218;51.408;7.208;2023-08-12T04:47:16;2.27;;;2.17;;
4409;SDS011;2218;51.408;7.208;2023-08-12T04:49:44;2.00;;;1.90;;
4409;SDS011;2218;51.408;7.208;2023-08-12T04:52:11;2.07;;;1.97;;
4409;SDS011;2218;51.408;7.208;2023-08-12T04:54:39;2.10;;;2.00;;
4409;SDS011;2218;51.408;7.208;2023-08-12T04:57:06;2.03;;;1.93;;
4409;SDS011;2218;51.408;7.208;2023-08-12T04:59:33;2.33;;;2.17;;
4409;SDS011;2218;51.408;7.208;2023-08-12T05:02:00;2.00;;;1.90;;
4409;SDS011;2218;51.408;7.208;2023-08-12T05:04:28;2.20;;;2.10;;
4409;SDS011;2218;51.408;7.208;2023-08-12T05:06:56;2.20;;;2.10;;
4409;SDS011;2218;51.408;7.208;2023-08-12T05:09:24;2.20;;;2.00;;
4409;SDS011;2218;51.408;7.208;2023-08-12T05:11:51;1.90;;;1.80;;
4409;SDS011;2218;51.408;7.208;2023-08-12T05:14:18;2.10;;;2.00;;
4409;SDS011;2218;51.408;7.208;2023-08-12T05:16:45;2.50;;;2.40;;
4409;SDS011;2218;51.408;7.208;2023-08-12T05:19:12;2.30;;;2.20;;
4409;SDS011;2218;51.408;7.208;2023-08-12T05:21:40;2.30;;;2.20;;
4409;SDS011;2218;51.408;7.208;2023-08-12T05:24:08;2.60;;;2.40;;
4409;SDS011;2218;51.408;7.208;2023-08-12T05:26:36;2.43;;;2.33;;
4409;SDS011;2218;51.408;7.208;2023-08-12T05:29:03;2.40;;;2.10;;
4409;SDS011;2218;51.408;7.208;2023-08-12T05:31:30;2.00;;;1.90;;
4409;SDS011;2218;51.408;7.208;2023-08-12T05:33:57;2.10;;;2.00;;
4409;SDS011;2218;51.408;7.208;2023-08-12T05:36:24;2.30;;;2.20;;
4409;SDS011;2218;51.408;7.208;2023-08-12T05:38:51;2.13;;;2.03;;
4409;SDS011;2218;51.408;7.208;2023-08-12T05:41:19;2.27;;;2.17;;
4409;SDS011;2218;51.408;7.208;2023-08-12T05:43:46;2.47;;;2.33;;
4409;SDS011;2218;51.408;7.208;2023-08-12T05:46:14;2.50;;;2.40;;
4409;SDS011;2218;51.408;7.208;2023-08-12T05:48:41;2.37;;;2.27;;
4409;SDS011;2218;51.408;7.208;2023-08-12T05:51:08;2.10;;;2.00;;
4409;SDS011;2218;51.408;7.208;2023-08-12T05:53:35;2.00;;;1.90;;
4409;SDS011;2218;51.408;7.208;2023-08-12T05:56:02;2.47;;;2.27;;
4409;SDS011;2218;51.408;7.208;2023-08-12T05:58:31;2.10;;;2.00;;
4409;SDS011;2218;51.408;7.208;2023-08-12T06:00:58;2.20;;;2.10;;
4409;SDS011;2218;51.408;7.208;2023-08-12T06:03:24;2.17;;;2.07;;
4409;SDS011;2218;51.408;7.208;2023-08-12T06:05:52;1.87;;;1.77;;
4409;SDS011;2218;51.408;7.208;2023-08-12T06:08:19;1.90;;;1.80;;
4409;SDS011;2218;51.408;7.208;2023-08-12T06:10:46;1.80;;;1.70;;
4409;SDS011;2218;51.408;7.208;2023-08-12T06:13:12;1.90;;;1.80;;
4409;SDS011;2218;51.408;7.208;2023-08-12T06:15:41;2.20;;;2.10;;
4409;SDS011;2218;51.408;7.208;2023-08-12T06:18:08;2.17;;;2.07;;
4409;SDS011;2218;51.408;7.208;2023-08-12T06:20:35;2.23;;;2.03;;
4409;SDS011;2218;51.408;7.208;2023-08-12T06:23:02;2.10;;;2.00;;
4409;SDS011;2218;51.408;7.208;2023-08-12T06:25:29;2.90;;;1.70;;
4409;SDS011;2218;51.408;7.208;2023-08-12T06:27:56;2.03;;;1.90;;
4409;SDS011;2218;51.408;7.208;2023-08-12T06:30:23;2.40;;;2.20;;
4409;SDS011;2218;51.408;7.208;2023-08-12T06:32:52;1.80;;;1.70;;
4409;SDS011;2218;51.408;7.208;2023-08-12T06:35:19;2.10;;;2.00;;
4409;SDS011;2218;51.408;7.208;2023-08-12T06:37:46;2.10;;;2.00;;
4409;SDS011;2218;51.408;7.208;2023-08-12T06:40:13;2.27;;;2.07;;
4409;SDS011;2218;51.408;7.208;2023-08-12T06:42:40;2.20;;;2.10;;
4409;SDS011;2218;51.408;7.208;2023-08-12T06:45:07;1.90;;;1.80;;
4409;SDS011;2218;51.408;7.208;2023-08-12T06:47:35;2.17;;;2.07;;
4409;SDS011;2218;51.408;7.208;2023-08-12T06:50:04;2.10;;;2.00;;
4409;SDS011;2218;51.408;7.208;2023-08-12T06:52:31;2.20;;;2.10;;
4409;SDS011;2218;51.408;7.208;2023-08-12T06:54:58;1.93;;;1.83;;
4409;SDS011;2218;51.408;7.208;2023-08-12T06:57:25;2.10;;;2.00;;
4409;SDS011;2218;51.408;7.208;2023-08-12T06:59:52;4.30;;;2.00;;
4409;SDS011;2218;51.408;7.208;2023-08-12T07:02:19;2.07;;;1.97;;
4409;SDS011;2218;51.408;7.208;2023-08-12T07:04:46;1.90;;;1.80;;
4409;SDS011;2218;51.408;7.208;2023-08-12T07:07:14;2.00;;;1.90;;
4409;SDS011;2218;51.408;7.208;2023-08-12T07:09:41;2.13;;;1.90;;
4409;SDS011;2218;51.408;7.208;2023-08-12T07:12:08;2.10;;;2.00;;
4409;SDS011;2218;51.408;7.208;2023-08-12T07:14:35;2.00;;;1.90;;
4409;SDS011;2218;51.408;7.208;2023-08-12T07:17:02;2.47;;;2.27;;
4409;SDS011;2218;51.408;7.208;2023-08-12T07:19:29;2.10;;;2.00;;
4409;SDS011;2218;51.408;7.208;2023-08-12T07:21:56;2.07;;;1.97;;
4409;SDS011;2218;51.408;7.208;2023-08-12T07:24:24;2.03;;;1.93;;
4409;SDS011;2218;51.408;7.208;2023-08-12T07:26:51;2.33;;;2.00;;
4409;SDS011;2218;51.408;7.208;2023-08-12T07:29:18;2.20;;;2.10;;
4409;SDS011;2218;51.408;7.208;2023-08-12T07:31:45;1.93;;;1.83;;
4409;SDS011;2218;51.408;7.208;2023-08-12T07:34:12;2.03;;;1.93;;
4409;SDS011;2218;51.408;7.208;2023-08-12T07:36:39;2.10;;;2.00;;
4409;SDS011;2218;51.408;7.208;2023-08-12T07:39:06;2.03;;;1.93;;
4409;SDS011;2218;51.408;7.208;2023-08-12T07:41:35;1.90;;;1.80;;
4409;SDS011;2218;51.408;7.208;2023-08-12T07:44:03;2.10;;;2.00;;
4409;SDS011;2218;51.408;7.208;2023-08-12T07:46:30;2.20;;;2.10;;
4409;SDS011;2218;51.408;7.208;2023-08-12T07:48:57;2.00;;;1.90;;
4409;SDS011;2218;51.408;7.208;2023-08-12T07:51:24;1.77;;;1.67;;
4409;SDS011;2218;51.408;7.208;2023-08-12T07:53:51;1.80;;;1.70;;
4409;SDS011;2218;51.408;7.208;2023-08-12T07:56:18;2.03;;;1.93;;
4409;SDS011;2218;51.408;7.208;2023-08-12T07:58:46;1.77;;;1.67;;
4409;SDS011;2218;51.408;7.208;2023-08-12T08:01:13;2.43;;;2.33;;
4409;SDS011;2218;51.408;7.208;2023-08-12T08:03:40;1.80;;;1.60;;
4409;SDS011;2218;51.408;7.208;2023-08-12T08:06:07;2.07;;;1.97;;
4409;SDS011;2218;51.408;7.208;2023-08-12T08:08:34;1.90;;;1.80;;
4409;SDS011;2218;51.408;7.208;2023-08-12T08:11:01;1.97;;;1.87;;
4409;SDS011;2218;51.408;7.208;2023-08-12T08:13:28;1.70;;;1.60;;
4409;SDS011;2218;51.408;7.208;2023-08-12T08:15:56;2.10;;;2.00;;
4409;SDS011;2218;51.408;7.208;2023-08-12T08:18:23;1.43;;;1.33;;
4409;SDS011;2218;51.408;7.208;2023-08-12T08:20:50;2.17;;;1.97;;
4409;SDS011;2218;51.408;7.208;2023-08-12T08:23:17;2.40;;;2.30;;
4409;SDS011;2218;51.408;7.208;2023-08-12T08:25:44;2.50;;;2.30;;
4409;SDS011;2218;51.408;7.208;2023-08-12T08:28:12;2.30;;;1.97;;
4409;SDS011;2218;51.408;7.208;2023-08-12T08:30:38;1.83;;;1.73;;
4409;SDS011;2218;51.408;7.208;2023-08-12T08:33:07;1.60;;;1.50;;
4409;SDS011;2218;51.408;7.208;2023-08-12T08:35:35;1.47;;;1.37;;
4409;SDS011;2218;51.408;7.208;2023-08-12T08:38:01;1.90;;;1.80;;
4409;SDS011;2218;51.408;7.208;2023-08-12T08:40:29;1.90;;;1.80;;
4409;SDS011;2218;51.408;7.208;2023-08-12T08:42:56;1.80;;;1.70;;
4409;SDS011;2218;51.408;7.208;2023-08-12T08:45:28;1.87;;;1.77;;
4409;SDS011;2218;51.408;7.208;2023-08-12T08:47:59;1.50;;;1.40;;
4409;SDS011;2218;51.408;7.208;2023-08-12T08:50:29;1.63;;;1.53;;
4409;SDS011;2218;51.408;7.208;2023-08-12T08:52:57;1.80;;;1.70;;
4409;SDS011;2218;51.408;7.208;2023-08-12T08:55:27;2.20;;;2.10;;
4409;SDS011;2218;51.408;7.208;2023-08-12T08:57:54;1.93;;;1.83;;
4409;SDS011;2218;51.408;7.208;2023-08-12T09:00:23;1.53;;;1.43;;
4409;SDS011;2218;51.408;7.208;2023-08-12T09:02:50;1.77;;;1.67;;
4409;SDS011;2218;51.408;7.208;2023-08-12T09:05:19;1.90;;;1.70;;
4409;SDS011;2218;51.408;7.208;2023-08-12T09:07:48;1.80;;;1.70;;
4409;SDS011;2218;51.408;7.208;2023-08-12T09:10:18;1.70;;;1.60;;
4409;SDS011;2218;51.408;7.208;2023-08-12T09:12:47;1.60;;;1.50;;
4409;SDS011;2218;51.408;7.208;2023-08-12T09:15:15;2.00;;;1.90;;
4409;SDS011;2218;51.408;7.208;2023-08-12T09:17:43;1.80;;;1.70;;
4409;SDS011;2218;51.408;7.208;2023-08-12T09:20:10;1.77;;;1.67;;
4409;SDS011;2218;51.408;7.208;2023-08-12T09:22:37;1.77;;;1.67;;
4409;SDS011;2218;51.408;7.208;2023-08-12T09:25:06;1.80;;;1.70;;
4409;SDS011;2218;51.408;7.208;2023-08-12T09:27:35;1.93;;;1.83;;
4409;SDS011;2218;51.408;7.208;2023-08-12T09:30:03;1.70;;;1.60;;
4409;SDS011;2218;51.408;7.208;2023-08-12T09:32:32;2.40;;;1.93;;
4409;SDS011;2218;51.408;7.208;2023-08-12T09:35:00;1.87;;;1.77;;
4409;SDS011;2218;51.408;7.208;2023-08-12T09:37:30;1.80;;;1.70;;
4409;SDS011;2218;51.408;7.208;2023-08-12T09:39:58;1.90;;;1.80;;
4409;SDS011;2218;51.408;7.208;2023-08-12T09:42:26;1.70;;;1.60;;
4409;SDS011;2218;51.408;7.208;2023-08-12T09:44:55;1.90;;;1.80;;
4409;SDS011;2218;51.408;7.208;2023-08-12T09:47:25;1.70;;;1.60;;
4409;SDS011;2218;51.408;7.208;2023-08-12T09:49:52;1.63;;;1.53;;
4409;SDS011;2218;51.408;7.208;2023-08-12T09:52:19;2.00;;;1.90;;
4409;SDS011;2218;51.408;7.208;2023-08-12T09:54:46;1.80;;;1.70;;
4409;SDS011;2218;51.408;7.208;2023-08-12T09:57:15;1.50;;;1.40;;
4409;SDS011;2218;51.408;7.208;2023-08-12T09:59:49;1.70;;;1.60;;
4409;SDS011;2218;51.408;7.208;2023-08-12T10:02:19;1.40;;;1.30;;
4409;SDS011;2218;51.408;7.208;2023-08-12T10:04:47;1.80;;;1.70;;
4409;SDS011;2218;51.408;7.208;2023-08-12T10:07:21;2.00;;;1.90;;
4409;SDS011;2218;51.408;7.208;2023-08-12T10:09:49;1.77;;;1.67;;
4409;SDS011;2218;51.408;7.208;2023-08-12T10:12:16;1.50;;;1.40;;
4409;SDS011;2218;51.408;7.208;2023-08-12T10:14:44;1.90;;;1.80;;
4409;SDS011;2218;51.408;7.208;2023-08-12T10:17:13;2.23;;;2.03;;
4409;SDS011;2218;51.408;7.208;2023-08-12T10:19:43;1.90;;;1.80;;
4409;SDS011;2218;51.408;7.208;2023-08-12T10:22:10;1.50;;;1.40;;
4409;SDS011;2218;51.408;7.208;2023-08-12T10:24:39;1.90;;;1.80;;
4409;SDS011;2218;51.408;7.208;2023-08-12T10:27:08;1.80;;;1.70;;
4409;SDS011;2218;51.408;7.208;2023-08-12T10:29:38;1.60;;;1.50;;
4409;SDS011;2218;51.408;7.208;2023-08-12T10:32:08;1.57;;;1.47;;
4409;SDS011;2218;51.408;7.208;2023-08-12T10:34:36;1.80;;;1.70;;
4409;SDS011;2218;51.408;7.208;2023-08-12T10:37:03;1.67;;;1.57;;
4409;SDS011;2218;51.408;7.208;2023-08-12T10:39:32;1.70;;;1.60;;
4409;SDS011;2218;51.408;7.208;2023-08-12T10:41:59;1.57;;;1.47;;
4409;SDS011;2218;51.408;7.208;2023-08-12T10:44:27;1.53;;;1.43;;
4409;SDS011;2218;51.408;7.208;2023-08-12T10:47:05;1.50;;;1.40;;
4409;SDS011;2218;51.408;7.208;2023-08-12T10:49:39;1.50;;;1.40;;
4409;SDS011;2218;51.408;7.208;2023-08-12T10:52:19;1.80;;;1.70;;
4409;SDS011;2218;51.408;7.208;2023-08-12T10:54:54;1.60;;;1.50;;
4409;SDS011;2218;51.408;7.208;2023-08-12T10:57:34;1.70;;;1.60;;
4409;SDS011;2218;51.408;7.208;2023-08-12T11:00:03;1.70;;;1.60;;
4409;SDS011;2218;51.408;7.208;2023-08-12T11:02:33;2.00;;;1.90;;
4409;SDS011;2218;51.408;7.208;2023-08-12T11:05:03;1.47;;;1.37;;
4409;SDS011;2218;51.408;7.208;2023-08-12T11:07:34;1.50;;;1.40;;
4409;SDS011;2218;51.408;7.208;2023-08-12T11:10:10;1.77;;;1.67;;
4409;SDS011;2218;51.408;7.208;2023-08-12T11:12:40;1.53;;;1.43;;
4409;SDS011;2218;51.408;7.208;2023-08-12T11:15:11;1.77;;;1.67;;
4409;SDS011;2218;51.408;7.208;2023-08-12T11:17:39;1.80;;;1.70;;
4409;SDS011;2218;51.408;7.208;2023-08-12T11:20:09;1.77;;;1.67;;
4409;SDS011;2218;51.408;7.208;2023-08-12T11:22:39;1.80;;;1.70;;
4409;SDS011;2218;51.408;7.208;2023-08-12T11:25:09;1.63;;;1.53;;
4409;SDS011;2218;51.408;7.208;2023-08-12T11:27:39;1.70;;;1.60;;
4409;SDS011;2218;51.408;7.208;2023-08-12T11:30:08;2.70;;;1.73;;
4409;SDS011;2218;51.408;7.208;2023-08-12T11:32:40;1.70;;;1.60;;
4409;SDS011;2218;51.408;7.208;2023-08-12T11:35:10;1.50;;;1.40;;
4409;SDS011;2218;51.408;7.208;2023-08-12T11:37:39;1.60;;;1.50;;
4409;SDS011;2218;51.408;7.208;2023-08-12T11:40:09;1.37;;;1.27;;
4409;SDS011;2218;51.408;7.208;2023-08-12T11:42:40;3.10;;;1.60;;
4409;SDS011;2218;51.408;7.208;2023-08-12T11:45:09;1.57;;;1.47;;
4409;SDS011;2218;51.408;7.208;2023-08-12T11:47:37;1.47;;;1.37;;
4409;SDS011;2218;51.408;7.208;2023-08-12T11:50:08;1.63;;;1.53;;
4409;SDS011;2218;51.408;7.208;2023-08-12T11:52:38;1.80;;;1.70;;
4409;SDS011;2218;51.408;7.208;2023-08-12T11:55:07;1.33;;;1.23;;
4409;SDS011;2218;51.408;7.208;2023-08-12T11:57:35;1.80;;;1.70;;
4409;SDS011;2218;51.408;7.208;2023-08-12T12:00:03;1.60;;;1.50;;
4409;SDS011;2218;51.408;7.208;2023-08-12T12:02:38;1.60;;;1.50;;
4409;SDS011;2218;51.408;7.208;2023-08-12T12:05:09;1.77;;;1.67;;
4409;SDS011;2218;51.408;7.208;2023-08-12T12:07:38;1.43;;;1.30;;
4409;SDS011;2218;51.408;7.208;2023-08-12T12:10:05;1.60;;;1.50;;
4409;SDS011;2218;51.408;7.208;2023-08-12T12:12:34;1.37;;;1.27;;
4409;SDS011;2218;51.408;7.208;2023-08-12T12:15:02;1.67;;;1.57;;
4409;SDS011;2218;51.408;7.208;2023-08-12T12:17:30;1.40;;;1.30;;
4409;SDS011;2218;51.408;7.208;2023-08-12T12:19:59;1.40;;;1.30;;
4409;SDS011;2218;51.408;7.208;2023-08-12T12:22:28;1.50;;;1.40;;
4409;SDS011;2218;51.408;7.208;2023-08-12T12:24:58;1.70;;;1.60;;
4409;SDS011;2218;51.408;7.208;2023-08-12T12:27:26;1.63;;;1.53;;
4409;SDS011;2218;51.408;7.208;2023-08-12T12:29:53;1.60;;;1.50;;
4409;SDS011;2218;51.408;7.208;2023-08-12T12:32:20;1.70;;;1.60;;
4409;SDS011;2218;51.408;7.208;2023-08-12T12:34:48;1.77;;;1.67;;
4409;SDS011;2218;51.408;7.208;2023-08-12T12:37:16;1.50;;;1.40;;
4409;SDS011;2218;51.408;7.208;2023-08-12T12:39:44;1.53;;;1.43;;
4409;SDS011;2218;51.408;7.208;2023-08-12T12:42:12;1.30;;;1.20;;
4409;SDS011;2218;51.408;7.208;2023-08-12T12:44:39;1.43;;;1.33;;
4409;SDS011;2218;51.408;7.208;2023-08-12T12:47:06;1.37;;;1.27;;
4409;SDS011;2218;51.408;7.208;2023-08-12T12:49:35;1.40;;;1.30;;
4409;SDS011;2218;51.408;7.208;2023-08-12T12:52:02;1.50;;;1.40;;
4409;SDS011;2218;51.408;7.208;2023-08-12T12:54:29;1.30;;;1.20;;
4409;SDS011;2218;51.408;7.208;2023-08-12T12:56:58;1.53;;;1.43;;
4409;SDS011;2218;51.408;7.208;2023-08-12T12:59:26;1.40;;;1.30;;
4409;SDS011;2218;51.408;7.208;2023-08-12T13:01:53;1.20;;;1.10;;
4409;SDS011;2218;51.408;7.208;2023-08-12T13:04:20;1.70;;;1.60;;
4409;SDS011;2218;51.408;7.208;2023-08-12T13:06:47;1.57;;;1.47;;
4409;SDS011;2218;51.408;7.208;2023-08-12T13:09:14;1.40;;;1.30;;
4409;SDS011;2218;51.408;7.208;2023-08-12T13:11:41;1.50;;;1.40;;
4409;SDS011;2218;51.408;7.208;2023-08-12T13:14:09;1.60;;;1.50;;
4409;SDS011;2218;51.408;7.208;2023-08-12T13:16:36;1.30;;;1.23;;
4409;SDS011;2218;51.408;7.208;2023-08-12T13:19:03;1.40;;;1.30;;
4409;SDS011;2218;51.408;7.208;2023-08-12T13:21:30;1.43;;;1.33;;
4409;SDS011;2218;51.408;7.208;2023-08-12T13:23:57;1.40;;;1.30;;
4409;SDS011;2218;51.408;7.208;2023-08-12T13:26:24;1.30;;;1.20;;
4409;SDS011;2218;51.408;7.208;2023-08-12T13:28:51;1.63;;;1.53;;
4409;SDS011;2218;51.408;7.208;2023-08-12T13:31:20;1.40;;;1.30;;
4409;SDS011;2218;51.408;7.208;2023-08-12T13:33:47;1.60;;;1.50;;
4409;SDS011;2218;51.408;7.208;2023-08-12T13:36:14;1.27;;;1.17;;
4409;SDS011;2218;51.408;7.208;2023-08-12T13:38:41;1.37;;;1.27;;
4409;SDS011;2218;51.408;7.208;2023-08-12T13:41:08;1.37;;;1.27;;
4409;SDS011;2218;51.408;7.208;2023-08-12T13:43:35;1.40;;;1.30;;
4409;SDS011;2218;51.408;7.208;2023-08-12T13:46:02;1.47;;;1.37;;
4409;SDS011;2218;51.408;7.208;2023-08-12T13:48:30;1.47;;;1.30;;
4409;SDS011;2218;51.408;7.208;2023-08-12T13:50:57;1.30;;;1.20;;
4409;SDS011;2218;51.408;7.208;2023-08-12T13:53:24;1.20;;;1.13;;
4409;SDS011;2218;51.408;7.208;2023-08-12T13:55:51;1.20;;;1.10;;
4409;SDS011;2218;51.408;7.208;2023-08-12T13:58:17;1.50;;;1.40;;
4409;SDS011;2218;51.408;7.208;2023-08-12T14:00:44;1.40;;;1.30;;
4409;SDS011;2218;51.408;7.208;2023-08-12T14:03:11;1.30;;;1.20;;
4409;SDS011;2218;51.408;7.208;2023-08-12T14:05:40;1.43;;;1.33;;
4409;SDS011;2218;51.408;7.208;2023-08-12T14:08:08;1.40;;;1.30;;
4409;SDS011;2218;51.408;7.208;2023-08-12T14:10:35;1.30;;;1.20;;
4409;SDS011;2218;51.408;7.208;2023-08-12T14:13:02;1.70;;;1.60;;
4409;SDS011;2218;51.408;7.208;2023-08-12T14:15:29;1.50;;;1.40;;
4409;SDS011;2218;51.408;7.208;2023-08-12T14:17:56;1.53;;;1.43;;
4409;SDS011;2218;51.408;7.208;2023-08-12T14:20:23;1.67;;;1.57;;
4409;SDS011;2218;51.408;7.208;2023-08-12T14:22:51;1.70;;;1.60;;
4409;SDS011;2218;51.408;7.208;2023-08-12T14:25:18;1.43;;;1.33;;
4409;SDS011;2218;51.408;7.208;2023-08-12T14:27:45;1.83;;;1.73;;
4409;SDS011;2218;51.408;7.208;2023-08-12T14:30:12;1.40;;;1.30;;
4409;SDS011;2218;51.408;7.208;2023-08-12T14:32:39;1.47;;;1.37;;
4409;SDS011;2218;51.408;7.208;2023-08-12T14:35:06;1.43;;;1.33;;
4409;SDS011;2218;51.408;7.208;2023-08-12T14:37:34;1.40;;;1.30;;
4409;SDS011;2218;51.408;7.208;2023-08-12T14:40:02;1.40;;;1.30;;
4409;SDS011;2218;51.408;7.208;2023-08-12T14:42:31;1.43;;;1.33;;
4409;SDS011;2218;51.408;7.208;2023-08-12T14:44:57;1.50;;;1.40;;
4409;SDS011;2218;51.408;7.208;2023-08-12T14:47:24;1.40;;;1.30;;
4409;SDS011;2218;51.408;7.208;2023-08-12T14:49:51;1.53;;;1.43;;
4409;SDS011;2218;51.408;7.208;2023-08-12T14:52:18;1.50;;;1.40;;
4409;SDS011;2218;51.408;7.208;2023-08-12T14:54:46;1.40;;;1.30;;
4409;SDS011;2218;51.408;7.208;2023-08-12T14:57:15;1.40;;;1.30;;
4409;SDS011;2218;51.408;7.208;2023-08-12T14:59:42;1.47;;;1.37;;
4409;SDS011;2218;51.408;7.208;2023-08-12T15:02:09;1.60;;;1.50;;
4409;SDS011;2218;51.408;7.208;2023-08-12T15:04:35;1.47;;;1.37;;
4409;SDS011;2218;51.408;7.208;2023-08-12T15:07:02;1.63;;;1.53;;
4409;SDS011;2218;51.408;7.208;2023-08-12T15:09:29;1.40;;;1.30;;
4409;SDS011;2218;51.408;7.208;2023-08-12T15:11:56;1.40;;;1.30;;
4409;SDS011;2218;51.408;7.208;2023-08-12T15:14:24;1.37;;;1.27;;
4409;SDS011;2218;51.408;7.208;2023-08-12T15:16:51;1.80;;;1.70;;
4409;SDS011;2218;51.408;7.208;2023-08-12T15:19:18;1.40;;;1.30;;